Time;durP1;ratioP1;P1;durP2;ratioP2;P2;SDS_P1;SDS_P2;PMS_P1;PMS_P2;Temp;Humidity;BMP_temperature;BMP_pressure;BME280_temperature;BME280_humidity;BME280_pressure;Samples;Min_cycle;Max_cycle;Signal;HPM_P1;HPM_P2
2022/01/08 00:02:10;;;;;;;191.52;160.20;;;;;;;15.13;32.17;93385.22;4981860;28;20519;-67
2022/01/08 00:04:35;;;;;;;184.75;155.13;;;;;;;15.14;32.17;93388.66;4979204;28;20495;-67
2022/01/08 00:07:01;;;;;;;192.05;159.10;;;;;;;15.13;32.10;93379.09;4988373;28;20425;-67
2022/01/08 00:09:27;;;;;;;183.98;153.57;;;;;;;15.12;31.96;93372.94;4979881;28;20049;-67
2022/01/08 00:11:52;;;;;;;187.40;152.57;;;;;;;15.12;32.08;93369.50;4979523;28;20073;-67
2022/01/08 00:14:21;;;;;;;184.25;149.80;;;;;;;15.13;32.16;93368.31;4981749;28;20039;-67
2022/01/08 00:16:46;;;;;;;184.30;153.30;;;;;;;15.10;32.29;93363.81;4982809;28;20034;-68
2022/01/08 00:19:12;;;;;;;185.27;155.00;;;;;;;15.11;32.14;93354.53;4982281;28;20155;-67
2022/01/08 00:21:38;;;;;;;189.05;154.60;;;;;;;15.10;31.98;93353.81;4990886;28;20120;-67
2022/01/08 00:24:04;;;;;;;189.07;156.63;;;;;;;15.12;31.95;93361.44;4979956;28;20050;-67
2022/01/08 00:26:29;;;;;;;187.93;157.57;;;;;;;15.10;31.94;93351.09;4981755;28;20054;-67
2022/01/08 00:28:54;;;;;;;187.75;154.85;;;;;;;15.10;32.04;93344.97;4979718;28;20143;-67
2022/01/08 00:31:20;;;;;;;188.70;157.95;;;;;;;15.09;31.95;93349.63;4982002;28;20494;-67
2022/01/08 00:33:47;;;;;;;195.27;161.20;;;;;;;15.10;32.09;93347.66;4982350;28;20047;-67
2022/01/08 00:36:12;;;;;;;193.35;160.48;;;;;;;15.09;32.12;93348.88;4977687;28;20380;-66
2022/01/08 00:38:38;;;;;;;204.05;166.50;;;;;;;15.09;31.98;93346.91;4982352;28;20149;-67
2022/01/08 00:41:03;;;;;;;194.52;160.48;;;;;;;15.08;32.15;93350.81;4997826;28;20336;-67
2022/01/08 00:43:29;;;;;;;197.25;163.68;;;;;;;15.09;31.97;93343.47;4978638;28;20096;-66
2022/01/08 00:45:55;;;;;;;183.05;151.32;;;;;;;15.09;32.03;93341.53;4975423;28;20591;-67
2022/01/08 00:48:20;;;;;;;194.48;161.23;;;;;;;15.08;32.00;93345.41;4978767;28;20559;-66
2022/01/08 00:50:46;;;;;;;188.90;157.57;;;;;;;15.08;31.96;93341.97;4981745;28;20041;-67
2022/01/08 00:53:12;;;;;;;197.20;163.05;;;;;;;15.09;32.12;93335.41;4984852;28;20216;-68
2022/01/08 00:55:37;;;;;;;188.40;156.70;;;;;;;15.09;32.12;93327.31;4980290;28;20201;-67
2022/01/08 00:58:03;;;;;;;189.38;156.48;;;;;;;15.08;31.89;93326.56;4985697;28;20069;-67
2022/01/08 01:00:28;;;;;;;187.98;156.55;;;;;;;15.08;32.03;93318.50;4985945;28;20386;-67
2022/01/08 01:02:54;;;;;;;187.07;154.98;;;;;;;15.08;32.06;93312.34;4980850;28;20122;-67
2022/01/08 01:05:21;;;;;;;190.40;158.25;;;;;;;15.08;32.08;93310.41;4978647;28;20077;-67
2022/01/08 01:07:47;;;;;;;189.70;158.85;;;;;;;15.08;31.92;93307.72;4983005;28;20051;-68
2022/01/08 01:10:12;;;;;;;189.77;157.77;;;;;;;15.08;31.83;93312.34;4974405;28;20137;-67
2022/01/08 01:12:39;;;;;;;188.77;155.88;;;;;;;15.07;31.91;93306.22;4978729;28;20129;-67
2022/01/08 01:15:06;;;;;;;204.70;168.10;;;;;;;15.06;31.53;93306.69;4986589;28;20414;-67
2022/01/08 01:17:32;;;;;;;183.45;151.65;;;;;;;15.06;31.86;93304.72;4986637;28;20053;-67
2022/01/08 01:19:57;;;;;;;185.07;153.75;;;;;;;15.06;31.91;93299.34;4983005;28;20494;-67
2022/01/08 01:22:28;;;;;;;189.70;157.85;;;;;;;15.05;31.90;93295.16;4986573;28;20046;-67
2022/01/08 01:25:01;;;;;;;190.35;155.93;;;;;;;15.05;31.81;93292.47;4989071;28;20062;-67
2022/01/08 01:30:28;;;;;;;194.20;160.25;;;;;;;15.06;31.71;93283.19;4960273;28;20069;-67
2022/01/08 01:48:52;;;;;;;188.63;156.30;;;;;;;15.04;31.81;93239.06;4986623;28;20054;-67
2022/01/08 01:51:22;;;;;;;193.80;161.88;;;;;;;15.04;31.77;93239.06;4983726;28;21208;-66
2022/01/08 01:53:49;;;;;;;192.25;158.90;;;;;;;15.03;31.79;93232.19;4971554;28;20141;-67
2022/01/08 01:56:19;;;;;;;187.60;156.05;;;;;;;15.04;31.84;93215.56;4979441;28;20053;-67
2022/01/08 01:58:46;;;;;;;194.13;159.82;;;;;;;15.04;31.80;93201.38;4996869;28;20054;-67
2022/01/08 02:01:11;;;;;;;192.00;159.50;;;;;;;15.03;31.87;93200.63;4977906;28;20057;-67
2022/01/08 02:03:37;;;;;;;190.55;158.15;;;;;;;15.02;31.98;93198.38;4978747;28;20042;-67
2022/01/08 02:06:03;;;;;;;188.07;155.98;;;;;;;15.02;32.06;93199.13;4983188;28;20117;-67
2022/01/08 02:08:29;;;;;;;191.50;156.98;;;;;;;15.01;31.94;93199.59;4974967;28;20054;-67
2022/01/08 02:10:55;;;;;;;191.70;157.00;;;;;;;14.99;31.81;93196.59;4984030;28;21087;-67
2022/01/08 02:13:26;;;;;;;193.07;158.65;;;;;;;14.99;31.90;93196.59;4977011;28;20065;-66
2022/01/08 02:15:54;;;;;;;190.00;158.35;;;;;;;14.98;31.73;93192.41;4984696;28;20050;-67
2022/01/08 02:18:23;;;;;;;194.32;159.60;;;;;;;14.99;31.75;93185.81;4977639;28;20050;-67
2022/01/08 02:20:49;;;;;;;187.38;156.68;;;;;;;14.99;31.79;93183.88;5000087;28;20052;-67
2022/01/08 02:23:15;;;;;;;185.68;154.65;;;;;;;14.98;31.70;93182.38;4990836;28;20109;-67
2022/01/08 02:25:41;;;;;;;187.60;155.82;;;;;;;14.99;31.81;93188.53;4981717;28;20124;-67
2022/01/08 02:28:07;;;;;;;187.57;154.35;;;;;;;14.98;31.70;93178.94;4976048;28;20054;-67
2022/01/08 02:30:32;;;;;;;186.68;155.02;;;;;;;14.97;31.64;93178.19;4985058;28;20426;-67
2022/01/08 02:32:59;;;;;;;197.75;163.13;;;;;;;14.98;31.63;93177.00;5001225;28;20076;-67
2022/01/08 02:35:25;;;;;;;200.32;164.95;;;;;;;14.97;31.81;93170.13;4981678;28;20069;-67
2022/01/08 02:37:52;;;;;;;188.93;155.77;;;;;;;14.96;31.68;93165.94;4985351;28;20042;-67
2022/01/08 02:40:19;;;;;;;190.75;158.70;;;;;;;14.97;31.79;93170.13;4984347;28;20461;-67
2022/01/08 02:42:54;;;;;;;193.82;161.68;;;;;;;14.97;31.67;93158.59;4986063;28;20081;-67
2022/01/08 02:45:21;;;;;;;184.80;150.82;;;;;;;14.96;31.70;93155.16;4979952;28;20569;-67
2022/01/08 02:47:52;;;;;;;188.65;155.57;;;;;;;14.97;31.66;93153.22;4979313;28;20553;-67
2022/01/08 02:50:17;;;;;;;188.75;155.82;;;;;;;14.97;31.49;93158.59;4979143;28;20792;-67
2022/01/08 02:52:44;;;;;;;190.10;157.50;;;;;;;14.97;31.53;93150.53;4976009;28;20039;-67
2022/01/08 02:55:10;;;;;;;188.13;155.48;;;;;;;14.96;31.58;93143.66;4981399;28;20141;-67
2022/01/08 02:57:36;;;;;;;181.48;151.20;;;;;;;14.95;31.51;93142.91;4981680;28;20131;-67
2022/01/08 03:00:04;;;;;;;186.60;155.27;;;;;;;14.94;31.55;93136.06;4968806;28;20047;-68
2022/01/08 03:02:30;;;;;;;188.80;156.00;;;;;;;14.94;31.55;93133.38;4974864;28;20081;-67
2022/01/08 03:04:55;;;;;;;210.50;174.63;;;;;;;14.93;31.63;93136.50;4976933;28;20498;-67
2022/01/08 03:07:21;;;;;;;189.73;157.60;;;;;;;14.93;31.62;93134.56;4981205;28;20066;-67
2022/01/08 03:09:56;;;;;;;187.43;154.00;;;;;;;14.93;31.42;93128.44;4977596;28;20057;-66
2022/01/08 03:12:24;;;;;;;187.23;155.35;;;;;;;14.93;31.42;93128.44;4977662;28;20728;-67
2022/01/08 03:14:49;;;;;;;187.48;156.23;;;;;;;14.93;31.52;93117.66;4978716;28;20428;-67
2022/01/08 03:17:15;;;;;;;185.77;153.23;;;;;;;14.92;31.66;93111.53;4980489;28;20073;-66
2022/01/08 03:19:43;;;;;;;188.60;154.70;;;;;;;14.92;31.50;93100.78;4980201;28;20574;-67
2022/01/08 03:22:10;;;;;;;188.23;156.00;;;;;;;14.92;31.36;93103.47;4984315;28;20150;-67
2022/01/08 03:24:36;;;;;;;200.40;165.23;;;;;;;14.93;31.61;93090.75;4982056;28;20124;-68
2022/01/08 03:27:02;;;;;;;185.90;154.07;;;;;;;14.93;31.45;93094.19;4983622;28;20054;-67
2022/01/08 03:29:28;;;;;;;181.52;148.25;;;;;;;14.93;31.24;93088.81;4981865;28;20054;-66
2022/01/08 03:31:54;;;;;;;214.02;192.52;;;;;;;14.92;31.37;93087.31;4981835;28;20078;-67
2022/01/08 03:34:20;;;;;;;184.48;152.27;;;;;;;14.93;31.39;93086.13;4980381;28;20046;-67
2022/01/08 03:36:46;;;;;;;182.93;150.90;;;;;;;14.91;31.43;93077.75;4987368;28;20426;-67
2022/01/08 03:39:12;;;;;;;187.30;153.40;;;;;;;14.92;31.46;93078.50;4977780;28;20101;-67
2022/01/08 03:41:37;;;;;;;186.07;153.15;;;;;;;14.91;31.47;93077.00;4982024;28;20044;-67
2022/01/08 03:44:03;;;;;;;186.65;153.98;;;;;;;14.91;31.29;93071.63;4968886;28;20054;-68
2022/01/08 03:46:33;;;;;;;194.65;158.60;;;;;;;14.90;31.43;93068.19;4974654;28;20056;-67
2022/01/08 03:51:28;;;;;;;193.63;159.68;;;;;;;14.90;31.43;93059.34;4980950;28;20050;-67
2022/01/08 03:53:53;;;;;;;185.90;152.88;;;;;;;14.90;31.46;93064.75;4984261;28;20113;-66
2022/01/08 03:56:19;;;;;;;190.10;156.00;;;;;;;14.89;31.44;93064.00;4980534;28;20058;-67
2022/01/08 03:58:44;;;;;;;186.38;153.85;;;;;;;14.89;31.51;93058.59;4974620;28;20570;-67
2022/01/08 04:01:10;;;;;;;187.00;152.35;;;;;;;14.89;31.31;93055.16;4985371;28;20043;-66
2022/01/08 04:03:36;;;;;;;194.05;158.68;;;;;;;14.89;31.37;93057.88;4988299;28;20447;-67
2022/01/08 04:06:01;;;;;;;186.02;153.77;;;;;;;14.88;31.36;93062.50;4989538;28;20038;-67
2022/01/08 04:08:27;;;;;;;186.52;152.50;;;;;;;14.88;31.38;93067.13;4986925;28;20045;-67
2022/01/08 04:10:53;;;;;;;186.10;153.80;;;;;;;14.88;31.23;93067.88;4986041;28;20105;-66
2022/01/08 04:13:28;;;;;;;195.30;159.55;;;;;;;14.88;31.31;93056.38;4980163;28;20061;-67
2022/01/08 04:15:59;;;;;;;186.85;153.68;;;;;;;14.88;31.26;93053.69;4985270;28;20046;-67
2022/01/08 04:18:25;;;;;;;190.65;156.40;;;;;;;14.88;31.25;93051.75;4981712;28;20542;-66
2022/01/08 04:23:35;;;;;;;187.90;152.90;;;;;;;14.88;31.34;93045.59;4977551;28;20046;-67
2022/01/08 04:26:00;;;;;;;194.00;159.60;;;;;;;14.88;31.43;93043.66;4981554;28;20054;-67
2022/01/08 04:28:26;;;;;;;184.43;151.18;;;;;;;14.88;31.74;93040.22;4984991;28;20085;-67
2022/01/08 04:30:52;;;;;;;194.80;159.65;;;;;;;14.88;31.48;93034.84;4981697;28;20064;-68
2022/01/08 04:33:17;;;;;;;192.55;156.43;;;;;;;14.89;31.33;93033.63;4982819;28;20486;-67
2022/01/08 04:35:43;;;;;;;184.73;150.80;;;;;;;14.88;31.43;93027.50;4981542;28;20066;-67
2022/01/08 04:38:09;;;;;;;187.57;153.32;;;;;;;14.88;31.56;93005.22;4980294;28;20078;-67
2022/01/08 04:40:35;;;;;;;186.40;152.23;;;;;;;14.88;31.90;93013.31;4981892;28;20483;-67
2022/01/08 04:43:01;;;;;;;192.25;157.55;;;;;;;14.88;31.84;93005.22;4975679;28;20510;-67
2022/01/08 04:45:29;;;;;;;188.57;155.05;;;;;;;14.89;31.78;93012.84;4977600;28;20733;-67
2022/01/08 04:47:58;;;;;;;187.68;153.25;;;;;;;14.89;31.88;93015.53;4979770;28;20113;-66
2022/01/08 04:50:25;;;;;;;191.00;157.82;;;;;;;14.89;31.84;93010.16;4985755;28;20045;-67
2022/01/08 04:52:51;;;;;;;184.05;152.52;;;;;;;14.90;32.00;93006.25;4982016;28;20266;-67
2022/01/08 04:55:17;;;;;;;182.55;149.43;;;;;;;14.91;32.16;92998.94;4988061;28;20070;-67
2022/01/08 04:57:42;;;;;;;189.88;156.68;;;;;;;14.91;32.22;93001.63;4980756;28;20073;-67
2022/01/08 05:00:09;;;;;;;184.68;153.27;;;;;;;14.92;32.18;93014.63;4981206;28;20069;-67
2022/01/08 05:02:34;;;;;;;185.18;153.35;;;;;;;14.91;32.19;93018.53;4989334;28;20467;-67
2022/01/08 05:05:00;;;;;;;206.30;168.65;;;;;;;14.93;32.22;93018.06;4972766;28;20136;-67
2022/01/08 05:07:26;;;;;;;188.82;154.10;;;;;;;14.92;32.20;93008.50;4981473;28;20069;-67
2022/01/08 05:09:51;;;;;;;187.00;152.85;;;;;;;14.94;32.08;93011.47;4977251;28;20058;-67
2022/01/08 05:12:17;;;;;;;186.73;153.85;;;;;;;14.96;32.23;93011.75;4971466;28;20051;-67
2022/01/08 05:14:45;;;;;;;189.02;154.60;;;;;;;14.95;32.44;93016.38;4980915;28;20055;-67
2022/01/08 05:17:14;;;;;;;183.45;153.13;;;;;;;14.99;32.35;93019.66;4982367;28;20435;-67
2022/01/08 05:22:10;;;;;;;186.52;154.82;;;;;;;15.00;32.30;93023.09;4982043;28;20491;-67
2022/01/08 05:24:36;;;;;;;185.43;152.48;;;;;;;15.00;32.33;93020.38;4985336;28;20050;-67
2022/01/08 05:27:03;;;;;;;186.13;152.77;;;;;;;15.01;32.18;93019.94;4975872;28;20057;-67
2022/01/08 05:29:30;;;;;;;187.90;155.30;;;;;;;15.02;32.40;93023.38;4975976;28;20120;-67
2022/01/08 05:31:56;;;;;;;186.30;154.10;;;;;;;15.03;32.41;93027.56;4981245;28;20042;-67
2022/01/08 05:34:21;;;;;;;189.15;154.05;;;;;;;15.03;31.55;93020.22;4978502;28;20097;-67
2022/01/08 05:36:47;;;;;;;185.40;153.25;;;;;;;15.05;32.21;93017.06;4971741;28;20042;-68
2022/01/08 05:39:12;;;;;;;193.15;160.02;;;;;;;15.06;32.25;93010.47;4981138;28;20058;-67
2022/01/08 05:41:38;;;;;;;186.68;155.25;;;;;;;15.07;32.38;93011.97;4986371;28;20448;-67
2022/01/08 05:44:04;;;;;;;188.27;156.40;;;;;;;15.07;32.47;93004.63;4977425;28;20077;-67
2022/01/08 05:46:29;;;;;;;185.82;156.25;;;;;;;15.09;32.28;93012.25;4977185;28;20632;-67
2022/01/08 05:49:00;;;;;;;183.93;152.65;;;;;;;15.10;32.44;93013.75;4977241;28;20047;-67
2022/01/08 05:51:26;;;;;;;184.68;152.95;;;;;;;15.12;32.47;93003.25;4981400;28;20053;-67
2022/01/08 05:53:51;;;;;;;187.07;155.27;;;;;;;15.12;32.41;93019.41;4984973;28;20055;-67
2022/01/08 05:56:16;;;;;;;186.82;156.68;;;;;;;15.11;32.23;93021.38;4983901;28;20063;-67
2022/01/08 05:58:42;;;;;;;187.30;156.75;;;;;;;15.12;32.30;93020.16;4981610;28;20065;-68
2022/01/08 06:01:07;;;;;;;187.07;155.20;;;;;;;15.13;32.42;93029.72;4981587;28;20051;-67
2022/01/08 06:03:33;;;;;;;191.45;160.70;;;;;;;15.14;32.31;93038.56;4981686;28;20047;-67
2022/01/08 06:05:59;;;;;;;187.73;157.48;;;;;;;15.16;32.39;93044.22;4987189;28;20439;-67
2022/01/08 06:08:24;;;;;;;187.50;156.70;;;;;;;15.15;32.27;93056.94;4977996;28;20054;-67
2022/01/08 06:10:50;;;;;;;188.10;157.45;;;;;;;15.19;32.22;93058.72;4970236;28;20125;-68
2022/01/08 06:13:15;;;;;;;187.57;155.88;;;;;;;15.20;32.33;93049.44;4986554;28;20050;-68
2022/01/08 06:15:41;;;;;;;186.05;154.15;;;;;;;15.19;32.51;93054.09;4977249;28;20465;-67
2022/01/08 06:18:06;;;;;;;185.10;154.50;;;;;;;15.23;32.50;93056.63;4978524;28;20047;-67
2022/01/08 06:20:32;;;;;;;189.40;158.73;;;;;;;15.22;32.65;93055.88;4987423;28;20125;-68
2022/01/08 06:22:57;;;;;;;185.60;155.63;;;;;;;15.22;32.50;93069.34;4976840;28;20061;-67
2022/01/08 06:25:23;;;;;;;186.38;154.38;;;;;;;15.20;32.94;93071.00;4986483;28;20107;-68
2022/01/08 06:27:54;;;;;;;187.05;156.25;;;;;;;15.20;32.26;93063.66;4996298;28;20120;-67
2022/01/08 06:30:19;;;;;;;195.75;162.45;;;;;;;15.21;32.34;93065.16;4980283;28;20105;-67
2022/01/08 06:32:45;;;;;;;185.10;154.27;;;;;;;15.22;32.40;93055.13;4984617;28;20058;-67
2022/01/08 06:35:10;;;;;;;184.63;154.63;;;;;;;15.23;32.42;93056.63;4986037;28;20125;-67
2022/01/08 06:37:36;;;;;;;190.55;159.45;;;;;;;15.23;32.32;93062.00;4974636;28;20049;-68
2022/01/08 06:40:01;;;;;;;181.82;150.88;;;;;;;15.22;32.40;93069.34;4980744;28;20061;-67
2022/01/08 06:42:27;;;;;;;190.05;158.85;;;;;;;15.22;32.67;93074.72;4980533;28;20372;-68
2022/01/08 06:44:52;;;;;;;192.05;159.30;;;;;;;15.23;32.45;93065.44;4983947;28;20093;-66
2022/01/08 06:47:18;;;;;;;186.35;155.63;;;;;;;15.22;32.36;93077.41;4976036;28;20078;-68
2022/01/08 06:49:43;;;;;;;186.23;155.13;;;;;;;15.25;32.21;93089.22;4983691;28;20437;-67
2022/01/08 06:52:09;;;;;;;187.45;155.32;;;;;;;15.24;32.31;93076.97;4979950;28;20498;-68
2022/01/08 06:54:34;;;;;;;186.40;153.90;;;;;;;15.26;32.22;93066.47;4977985;28;20049;-67
2022/01/08 06:57:00;;;;;;;185.35;155.15;;;;;;;15.25;32.18;93071.13;4973123;28;20054;-67
2022/01/08 06:59:25;;;;;;;185.60;154.05;;;;;;;15.25;32.15;93070.38;4978510;28;20039;-67
2022/01/08 07:01:51;;;;;;;188.40;159.40;;;;;;;15.24;32.00;93077.69;4978537;28;20062;-68
2022/01/08 07:04:16;;;;;;;190.68;159.43;;;;;;;15.26;32.05;93078.00;4982950;28;20054;-67
2022/01/08 07:06:42;;;;;;;185.93;153.68;;;;;;;15.26;32.04;93080.69;4978611;28;20065;-67
2022/01/08 07:09:07;;;;;;;186.93;157.68;;;;;;;15.26;32.04;93090.72;4982488;28;20057;-67
2022/01/08 07:11:33;;;;;;;186.30;155.63;;;;;;;15.25;32.09;93102.69;4988762;28;20541;-68
2022/01/08 07:13:59;;;;;;;186.15;155.50;;;;;;;15.25;31.97;93108.06;4973431;28;20050;-68
2022/01/08 07:16:24;;;;;;;187.15;156.90;;;;;;;15.26;31.92;93113.00;4977408;28;20069;-67
2022/01/08 07:18:50;;;;;;;189.02;158.38;;;;;;;15.26;31.95;93109.56;4981999;28;20407;-68
2022/01/08 07:21:15;;;;;;;187.35;157.70;;;;;;;15.25;31.96;93098.03;4969646;28;20051;-68
2022/01/08 07:23:41;;;;;;;202.90;168.05;;;;;;;15.25;31.96;93100.75;4980458;28;20093;-67
2022/01/08 07:26:06;;;;;;;182.88;153.00;;;;;;;15.25;32.17;93126.94;4983110;28;20058;-67
2022/01/08 07:28:32;;;;;;;188.05;158.20;;;;;;;15.24;32.13;93118.09;4983076;28;20105;-67
2022/01/08 07:30:58;;;;;;;187.38;156.98;;;;;;;15.24;32.00;93134.25;4995955;28;20097;-67
2022/01/08 07:33:23;;;;;;;188.40;156.68;;;;;;;15.26;31.87;93123.03;4980405;28;20054;-68
2022/01/08 07:35:49;;;;;;;186.75;153.23;;;;;;;15.24;31.85;93117.34;4982626;28;20091;-67
2022/01/08 07:38:14;;;;;;;188.30;153.98;;;;;;;15.24;31.89;93115.41;4981002;28;20137;-68
2022/01/08 07:40:40;;;;;;;186.75;156.18;;;;;;;15.25;31.85;93129.63;4970337;28;20086;-68
2022/01/08 07:43:05;;;;;;;185.23;155.20;;;;;;;15.24;31.84;93122.75;4979005;28;20507;-67
2022/01/08 07:45:31;;;;;;;188.88;157.32;;;;;;;15.25;31.88;93118.84;4972646;28;20524;-67
2022/01/08 07:47:57;;;;;;;185.73;154.35;;;;;;;15.25;31.83;93130.38;4973329;28;20066;-67
2022/01/08 07:50:22;;;;;;;185.75;154.18;;;;;;;15.27;31.88;93127.22;4981617;28;20055;-67
2022/01/08 07:52:48;;;;;;;185.07;155.43;;;;;;;15.27;31.91;93138.00;4984643;28;20482;-68
2022/01/08 07:55:14;;;;;;;183.45;152.05;;;;;;;15.25;31.90;93140.41;4982061;28;20526;-69
2022/01/08 07:57:40;;;;;;;189.93;159.63;;;;;;;15.27;31.98;93129.91;4980170;28;20046;-70
2022/01/08 08:00:08;;;;;;;184.50;154.75;;;;;;;15.27;31.90;93132.59;4981599;28;20077;-68
2022/01/08 08:02:33;;;;;;;191.35;158.23;;;;;;;15.26;32.09;93131.84;4973303;28;20050;-67
2022/01/08 08:04:59;;;;;;;202.32;166.70;;;;;;;15.26;32.01;93144.59;4972764;28;20392;-66
2022/01/08 08:07:29;;;;;;;186.82;157.57;;;;;;;15.26;31.83;93142.63;4981222;28;20149;-67
2022/01/08 08:09:55;;;;;;;188.43;156.85;;;;;;;15.25;31.88;93146.53;4977298;28;20050;-67
2022/01/08 08:12:22;;;;;;;187.13;156.30;;;;;;;15.25;31.75;93151.91;4983957;28;20399;-70
2022/01/08 08:14:48;;;;;;;192.55;159.73;;;;;;;15.25;31.88;93143.09;4981275;28;20050;-70
2022/01/08 08:17:14;;;;;;;186.65;156.85;;;;;;;15.24;31.89;93163.91;4979153;28;20201;-72
2022/01/08 08:19:39;;;;;;;186.07;157.25;;;;;;;15.26;31.58;93158.06;4979131;28;20143;-69
2022/01/08 08:22:05;;;;;;;183.35;152.45;;;;;;;15.24;31.83;93157.75;4973450;28;20057;-71
2022/01/08 08:24:30;;;;;;;183.75;154.05;;;;;;;15.24;31.86;93169.28;4971412;28;20100;-66
2022/01/08 08:26:56;;;;;;;187.13;156.27;;;;;;;15.25;31.78;93170.03;4979611;28;20050;-66
2022/01/08 08:29:21;;;;;;;187.52;156.60;;;;;;;15.26;31.77;93176.91;4983140;28;20054;-69
2022/01/08 08:31:47;;;;;;;185.00;155.23;;;;;;;15.24;31.75;93190.09;4982740;28;20095;-67
2022/01/08 08:34:12;;;;;;;190.20;157.00;;;;;;;15.20;31.65;93184.84;4976946;28;20147;-70
2022/01/08 08:36:38;;;;;;;185.13;153.05;;;;;;;15.21;31.75;93188.28;4983054;28;20042;-70
2022/01/08 08:39:03;;;;;;;188.27;155.30;;;;;;;15.20;31.67;93192.19;4979817;28;20479;-70
2022/01/08 08:41:30;;;;;;;188.30;157.60;;;;;;;15.24;31.72;93192.78;4977615;28;20054;-66
2022/01/08 08:43:55;;;;;;;182.93;152.75;;;;;;;15.24;31.80;93201.59;4983774;28;20197;-67
2022/01/08 08:46:21;;;;;;;186.13;155.65;;;;;;;15.19;31.74;93204.16;4978931;28;20046;-67
2022/01/08 08:48:46;;;;;;;189.88;158.75;;;;;;;15.20;31.87;93219.88;4977910;28;20581;-68
2022/01/08 08:51:12;;;;;;;196.18;164.85;;;;;;;15.18;31.85;93216.88;4982615;28;20054;-73
2022/01/08 08:53:38;;;;;;;190.73;157.88;;;;;;;15.19;31.75;93210.28;4978203;28;20054;-65
2022/01/08 08:56:04;;;;;;;185.40;154.60;;;;;;;15.23;31.90;93210.13;4996929;28;20141;-65
2022/01/08 08:58:30;;;;;;;187.10;154.98;;;;;;;15.23;32.00;93218.97;4984863;28;20104;-66
2022/01/08 09:00:55;;;;;;;187.65;156.70;;;;;;;15.26;32.11;93220.75;4978513;28;20129;-66
2022/01/08 09:03:21;;;;;;;190.55;159.65;;;;;;;15.27;31.97;93221.50;4972554;28;20050;-65
2022/01/08 09:05:47;;;;;;;184.95;155.07;;;;;;;15.26;32.24;93217.31;4974070;28;20049;-67
2022/01/08 09:08:13;;;;;;;186.05;153.60;;;;;;;15.26;32.19;93233.47;4973701;28;20047;-68
2022/01/08 09:10:38;;;;;;;186.25;156.05;;;;;;;15.19;32.15;93253.38;4983586;28;20042;-67
2022/01/08 09:13:03;;;;;;;192.07;158.70;;;;;;;15.15;32.20;93258.19;4974397;28;20751;-68
2022/01/08 09:15:29;;;;;;;190.52;158.77;;;;;;;15.19;32.29;93268.81;4982383;28;20406;-67
2022/01/08 09:17:57;;;;;;;183.95;153.32;;;;;;;15.18;32.35;93265.38;4980982;28;20068;-68
2022/01/08 09:20:25;;;;;;;187.93;155.13;;;;;;;15.20;32.33;93275.69;4980258;28;20060;-68
2022/01/08 09:22:50;;;;;;;182.32;153.02;;;;;;;15.23;32.37;93280.16;4972652;28;20050;-69
2022/01/08 09:25:16;;;;;;;186.02;155.30;;;;;;;15.22;32.42;93274.03;4982525;28;20050;-69
2022/01/08 09:27:41;;;;;;;189.73;158.70;;;;;;;15.25;32.39;93289.28;4976776;28;20047;-69
2022/01/08 09:30:08;;;;;;;187.13;154.68;;;;;;;15.22;32.36;93281.38;4982208;28;20055;-67
2022/01/08 09:32:34;;;;;;;192.80;159.50;;;;;;;15.20;32.43;93287.19;4988849;28;20129;-65
2022/01/08 09:34:59;;;;;;;230.95;188.88;;;;;;;15.23;32.35;93299.75;4966904;28;20624;-65
2022/01/08 09:37:25;;;;;;;212.75;175.52;;;;;;;15.24;32.53;93297.81;4965623;28;20056;-64
2022/01/08 09:39:51;;;;;;;202.60;168.57;;;;;;;15.21;32.32;93306.81;4971935;28;20039;-65
2022/01/08 09:42:17;;;;;;;212.73;176.07;;;;;;;15.19;32.39;93309.19;4972991;28;20542;-66
2022/01/08 09:44:44;;;;;;;208.75;172.15;;;;;;;15.18;32.62;93307.72;4974638;28;20584;-66
2022/01/08 09:47:11;;;;;;;202.75;166.82;;;;;;;15.13;32.60;93325.97;4972568;28;20766;-65
2022/01/08 09:49:38;;;;;;;211.85;176.02;;;;;;;15.14;32.48;93315.94;4974908;28;20038;-65
2022/01/08 09:52:04;;;;;;;203.95;168.63;;;;;;;15.18;32.42;93315.78;4973668;28;20054;-65
2022/01/08 09:54:33;;;;;;;206.35;171.18;;;;;;;15.21;32.51;93331.03;4972522;28;20053;-67
2022/01/08 09:56:59;;;;;;;204.85;169.27;;;;;;;15.19;32.57;93318.03;4972748;28;20042;-65
2022/01/08 09:59:28;;;;;;;206.07;167.35;;;;;;;15.21;32.61;93321.03;4972234;28;21621;-65
2022/01/08 10:01:58;;;;;;;204.05;166.40;;;;;;;15.24;32.31;93332.84;4976943;28;20054;-64
2022/01/08 10:04:31;;;;;;;207.38;171.18;;;;;;;15.23;32.64;93334.78;4978943;28;20197;-66
2022/01/08 10:07:17;;;;;;;202.20;164.48;;;;;;;15.22;32.46;93346.75;4968493;28;20124;-66
2022/01/08 10:10:12;;;;;;;205.25;168.95;;;;;;;15.23;32.36;93359.03;4976166;28;20819;-64
2022/01/08 10:12:44;;;;;;;203.07;164.95;;;;;;;15.23;32.51;93348.25;4972866;28;20699;-64
2022/01/08 10:17:56;;;;;;;210.00;172.45;;;;;;;15.27;32.54;93358.88;4976085;28;20100;-65
2022/01/08 10:20:35;;;;;;;205.15;170.18;;;;;;;15.21;32.57;93357.97;4974758;28;20641;-66
2022/01/08 10:23:16;;;;;;;210.27;173.40;;;;;;;15.17;32.48;93368.91;4975912;28;20417;-65
2022/01/08 10:25:55;;;;;;;191.65;158.55;;;;;;;15.18;32.35;93372.34;4974016;28;20241;-66
2022/01/08 10:28:37;;;;;;;202.75;165.00;;;;;;;15.13;32.53;93363.66;4971770;28;20164;-66
2022/01/08 10:31:15;;;;;;;207.50;168.95;;;;;;;15.10;32.41;93377.28;4971544;28;20081;-65
2022/01/08 10:33:44;;;;;;;213.43;174.55;;;;;;;15.10;32.36;93382.69;4975282;28;20050;-66
2022/01/08 10:36:11;;;;;;;214.90;174.85;;;;;;;15.04;32.33;93393.28;4971092;28;20038;-66
2022/01/08 10:38:37;;;;;;;209.93;171.88;;;;;;;15.03;32.32;93385.66;4975508;28;20053;-65
2022/01/08 10:41:03;;;;;;;215.30;176.07;;;;;;;15.06;31.94;93392.84;4975442;28;20058;-65
2022/01/08 10:43:33;;;;;;;198.82;163.57;;;;;;;14.93;32.35;93384.94;4973968;28;20846;-67
2022/01/08 10:46:19;;;;;;;207.18;168.55;;;;;;;14.97;32.17;93390.16;4971614;28;20038;-65
2022/01/08 10:48:48;;;;;;;214.48;173.73;;;;;;;14.97;32.13;93396.28;4965940;28;20050;-65
2022/01/08 10:51:18;;;;;;;210.35;171.40;;;;;;;15.01;32.14;93388.81;4970399;28;20048;-65
2022/01/08 10:54:16;;;;;;;199.13;159.70;;;;;;;15.00;32.09;93400.03;4971014;28;20181;-66
2022/01/08 10:56:49;;;;;;;209.20;168.55;;;;;;;14.96;32.01;93388.66;4961966;28;20061;-63
2022/01/08 10:59:14;;;;;;;213.10;172.38;;;;;;;15.01;32.12;93404.97;4968270;28;20153;-64
2022/01/08 11:01:50;;;;;;;195.20;159.60;;;;;;;15.05;32.06;93415.59;4960939;28;20057;-65
2022/01/08 11:04:44;;;;;;;222.55;181.40;;;;;;;15.06;32.19;93412.44;4965141;28;20046;-65
2022/01/08 11:07:22;;;;;;;220.48;177.30;;;;;;;15.07;31.97;93415.88;4954843;28;20137;-63
2022/01/08 11:09:54;;;;;;;223.02;181.57;;;;;;;15.06;32.11;93423.22;4956403;28;20046;-64
2022/01/08 11:12:29;;;;;;;214.90;176.75;;;;;;;15.08;32.41;93418.13;4970830;28;20073;-66
2022/01/08 11:15:24;;;;;;;216.85;176.20;;;;;;;15.08;32.00;93412.75;4969459;28;20049;-66
2022/01/08 11:17:50;;;;;;;211.43;173.48;;;;;;;15.07;32.06;93405.88;4966934;28;20069;-64
2022/01/08 11:20:18;;;;;;;212.75;174.35;;;;;;;15.09;31.99;93400.03;4971794;28;20751;-64
2022/01/08 11:22:47;;;;;;;226.70;184.07;;;;;;;15.12;31.74;93407.97;4966810;28;20061;-65
2022/01/08 11:25:21;;;;;;;211.85;175.60;;;;;;;15.16;31.93;93407.81;4971141;28;20132;-64
2022/01/08 11:28:02;;;;;;;213.80;171.82;;;;;;;15.14;31.83;93399.44;4970329;28;20966;-66
2022/01/08 11:30:32;;;;;;;204.50;167.80;;;;;;;15.08;32.03;93398.53;4970411;28;20050;-65
2022/01/08 11:33:07;;;;;;;207.75;171.15;;;;;;;15.05;31.87;93400.19;4967831;28;20063;-65